Time;durP1;ratioP1;P1;durP2;ratioP2;P2;SDS_P1;SDS_P2;PMS_P1;PMS_P2;Temp;Humidity;BMP_temperature;BMP_pressure;BME280_temperature;BME280_humidity;BME280_pressure;Samples;Min_cycle;Max_cycle;Signal;HPM_P1;HPM_P2
2024/03/16 00:00:43;;;;;;;24.48;12.90;;;11.80;99.90;;;;;;5090070;28;20043;-78
2024/03/16 00:03:10;;;;;;;25.55;14.00;;;11.70;99.90;;;;;;5091413;28;20040;-78
2024/03/16 00:05:40;;;;;;;26.02;13.57;;;11.80;99.90;;;;;;5089085;28;20063;-78
2024/03/16 00:08:06;;;;;;;21.45;12.48;;;11.80;99.90;;;;;;5092874;28;20036;-78
2024/03/16 00:10:33;;;;;;;26.83;11.65;;;11.80;99.90;;;;;;5089140;28;20505;-78
2024/03/16 00:12:59;;;;;;;21.45;12.35;;;11.80;99.90;;;;;;5091817;27;20404;-78
2024/03/16 00:15:26;;;;;;;25.98;12.07;;;11.80;99.90;;;;;;5091840;28;20048;-78
2024/03/16 00:17:53;;;;;;;23.30;12.43;;;11.80;99.90;;;;;;5090275;28;20047;-78
2024/03/16 00:20:21;;;;;;;22.67;12.05;;;11.70;99.90;;;;;;5091559;28;20152;-79
2024/03/16 00:22:47;;;;;;;19.52;12.23;;;11.80;99.90;;;;;;5093024;28;20054;-78
2024/03/16 00:25:17;;;;;;;23.15;12.30;;;11.90;99.90;;;;;;5090423;28;20038;-78
2024/03/16 00:27:44;;;;;;;24.63;12.75;;;12.00;99.90;;;;;;5085245;28;20120;-78
2024/03/16 00:30:11;;;;;;;22.73;12.63;;;12.00;99.90;;;;;;5086529;28;20098;-79
2024/03/16 00:32:38;;;;;;;23.08;11.85;;;12.00;99.90;;;;;;5090781;28;20088;-79
2024/03/16 00:35:05;;;;;;;20.90;12.13;;;12.00;99.90;;;;;;5091561;28;20091;-79
2024/03/16 00:37:33;;;;;;;18.98;11.55;;;11.90;99.90;;;;;;5089973;27;20035;-78
2024/03/16 00:40:00;;;;;;;20.50;11.57;;;11.90;99.90;;;;;;5089005;28;20035;-78
2024/03/16 00:42:26;;;;;;;22.83;13.20;;;11.90;99.90;;;;;;5090062;28;20081;-79
2024/03/16 00:44:51;;;;;;;18.98;11.27;;;11.90;99.90;;;;;;5092380;28;20393;-78
2024/03/16 00:47:18;;;;;;;22.70;11.88;;;11.90;99.90;;;;;;5088882;28;20036;-79
2024/03/16 00:49:44;;;;;;;23.58;11.88;;;11.80;99.90;;;;;;5089821;28;20043;-79
2024/03/16 00:52:10;;;;;;;20.92;13.50;;;11.80;99.90;;;;;;5090745;28;20032;-78
2024/03/16 00:54:38;;;;;;;25.02;13.35;;;11.80;99.90;;;;;;5090073;28;20043;-78
2024/03/16 00:57:05;;;;;;;28.77;12.90;;;11.70;99.90;;;;;;5087650;27;20548;-78
2024/03/16 00:59:32;;;;;;;21.23;11.60;;;11.80;99.90;;;;;;5094392;28;20050;-78
2024/03/16 01:01:57;;;;;;;19.35;11.48;;;11.80;99.90;;;;;;5091155;28;20155;-78
2024/03/16 01:04:24;;;;;;;26.13;13.20;;;11.80;99.90;;;;;;5094506;28;20035;-78
2024/03/16 01:06:50;;;;;;;23.13;12.57;;;11.90;99.90;;;;;;5095385;28;20549;-78
2024/03/16 01:09:16;;;;;;;27.95;13.90;;;11.80;99.90;;;;;;5094297;27;20032;-78
2024/03/16 01:11:43;;;;;;;22.27;12.88;;;11.80;99.90;;;;;;5094602;28;20027;-78
2024/03/16 01:14:09;;;;;;;24.85;12.60;;;11.80;99.90;;;;;;5096417;28;20401;-78
2024/03/16 01:16:36;;;;;;;22.00;12.57;;;11.70;99.90;;;;;;5093123;28;20505;-78
2024/03/16 01:19:02;;;;;;;24.02;12.50;;;11.80;99.90;;;;;;5093828;28;20551;-78
2024/03/16 01:21:28;;;;;;;25.10;13.38;;;11.80;99.90;;;;;;5093433;28;20393;-78
2024/03/16 01:23:55;;;;;;;25.23;12.70;;;11.80;99.90;;;;;;5094921;28;20023;-78
2024/03/16 01:26:21;;;;;;;23.25;13.15;;;11.80;99.90;;;;;;5092081;28;20028;-78
2024/03/16 01:28:47;;;;;;;21.63;11.82;;;11.90;99.90;;;;;;5094704;28;20023;-78
2024/03/16 01:31:12;;;;;;;25.85;13.63;;;11.80;99.90;;;;;;5092742;28;20607;-78
2024/03/16 01:33:39;;;;;;;27.20;14.93;;;11.70;99.90;;;;;;5093135;28;20948;-78
2024/03/16 01:36:06;;;;;;;27.08;13.57;;;11.80;99.90;;;;;;5095664;28;20101;-78
2024/03/16 01:38:32;;;;;;;25.63;14.00;;;11.80;99.90;;;;;;5083228;28;20139;-78
2024/03/16 01:40:58;;;;;;;22.63;12.85;;;11.90;99.90;;;;;;5083909;28;20083;-78
2024/03/16 01:43:24;;;;;;;19.58;11.00;;;11.90;99.90;;;;;;5095472;28;20039;-78
2024/03/16 01:45:50;;;;;;;25.02;14.45;;;11.80;99.90;;;;;;5091581;28;20028;-78
2024/03/16 01:48:16;;;;;;;24.35;13.65;;;11.80;99.90;;;;;;5091354;28;20038;-78
2024/03/16 01:50:42;;;;;;;28.15;14.88;;;11.80;99.90;;;;;;5093315;28;20108;-78
2024/03/16 01:53:11;;;;;;;23.83;14.70;;;11.70;99.90;;;;;;5094117;28;20123;-78
2024/03/16 01:55:38;;;;;;;26.88;14.60;;;11.60;99.90;;;;;;5092187;28;20366;-78
2024/03/16 01:58:07;;;;;;;27.80;17.15;;;11.60;99.90;;;;;;5087190;28;20050;-78
2024/03/16 02:00:34;;;;;;;24.00;16.00;;;11.60;99.90;;;;;;5085840;28;20028;-78
2024/03/16 02:03:00;;;;;;;24.70;14.13;;;11.60;99.90;;;;;;5093173;28;20091;-78
2024/03/16 02:05:26;;;;;;;28.38;13.93;;;11.40;99.90;;;;;;5093465;28;20640;-78
2024/03/16 02:07:51;;;;;;;25.13;14.85;;;11.30;99.90;;;;;;5093384;28;20034;-78
2024/03/16 02:10:18;;;;;;;24.48;14.40;;;11.30;99.90;;;;;;5091881;28;20778;-78
2024/03/16 02:12:44;;;;;;;25.55;14.38;;;11.30;99.90;;;;;;5090540;28;20127;-78
2024/03/16 02:15:10;;;;;;;23.70;12.98;;;11.40;99.90;;;;;;5093160;28;20122;-78
2024/03/16 02:17:36;;;;;;;24.92;13.57;;;11.40;99.90;;;;;;5093983;28;20051;-78
2024/03/16 02:20:09;;;;;;;32.10;13.93;;;11.30;99.90;;;;;;5094139;28;20031;-78
2024/03/16 02:22:35;;;;;;;23.88;14.30;;;11.40;99.90;;;;;;5094556;28;20044;-78
2024/03/16 02:25:01;;;;;;;25.08;13.13;;;11.40;99.90;;;;;;5092645;28;20133;-78
2024/03/16 02:27:27;;;;;;;29.92;15.55;;;11.50;99.90;;;;;;5089112;27;20458;-78
2024/03/16 02:29:53;;;;;;;26.58;13.93;;;11.50;99.90;;;;;;5090193;28;20115;-78
2024/03/16 02:32:18;;;;;;;24.23;13.45;;;11.40;99.90;;;;;;5095615;28;20031;-78
2024/03/16 02:34:44;;;;;;;24.85;13.35;;;11.40;99.90;;;;;;5092971;28;20034;-78
2024/03/16 02:37:10;;;;;;;25.33;13.48;;;11.30;99.90;;;;;;5092832;28;20427;-78
2024/03/16 02:39:36;;;;;;;28.10;14.18;;;11.40;99.90;;;;;;5092528;28;20027;-78
2024/03/16 02:42:03;;;;;;;24.80;13.93;;;11.40;99.90;;;;;;5091966;28;20385;-78
2024/03/16 02:44:29;;;;;;;27.45;14.40;;;11.50;99.90;;;;;;5092863;28;20031;-79
2024/03/16 02:46:59;;;;;;;31.02;15.45;;;11.40;99.90;;;;;;5091584;28;20041;-79
2024/03/16 02:49:25;;;;;;;27.50;12.73;;;11.30;99.90;;;;;;5087455;28;20112;-79
2024/03/16 02:51:51;;;;;;;21.05;12.95;;;11.30;99.90;;;;;;5091483;28;20084;-79
2024/03/16 02:54:18;;;;;;;22.50;13.43;;;11.30;99.90;;;;;;5093879;28;20035;-79
2024/03/16 02:56:44;;;;;;;27.17;15.02;;;11.20;99.90;;;;;;5093331;28;20036;-79
2024/03/16 02:59:11;;;;;;;27.75;14.88;;;11.20;99.90;;;;;;5092437;28;20036;-79
2024/03/16 03:01:37;;;;;;;28.33;17.50;;;11.30;99.90;;;;;;5093508;28;20162;-79
2024/03/16 03:04:06;;;;;;;30.50;15.82;;;11.40;99.90;;;;;;5091275;28;20050;-78
2024/03/16 03:06:33;;;;;;;28.08;15.98;;;11.40;99.90;;;;;;5092086;28;20505;-79
2024/03/16 03:08:59;;;;;;;23.73;14.05;;;11.40;99.90;;;;;;5090239;28;20035;-79
2024/03/16 03:11:25;;;;;;;26.42;14.48;;;11.50;99.90;;;;;;5092485;28;20094;-79
2024/03/16 03:13:51;;;;;;;26.58;14.50;;;11.40;99.90;;;;;;5093192;28;20040;-79
2024/03/16 03:16:19;;;;;;;25.63;13.88;;;11.30;99.90;;;;;;5093930;28;20468;-79
2024/03/16 03:18:49;;;;;;;21.63;12.80;;;11.40;99.90;;;;;;5081659;28;20385;-79
2024/03/16 03:21:15;;;;;;;24.23;14.23;;;11.30;99.90;;;;;;5091336;28;20036;-79
2024/03/16 03:23:41;;;;;;;25.02;13.00;;;11.30;99.90;;;;;;5096274;28;21393;-79
2024/03/16 03:26:08;;;;;;;21.23;13.30;;;11.40;99.90;;;;;;5100431;27;20069;-79
2024/03/16 03:28:37;;;;;;;22.90;13.35;;;11.40;99.90;;;;;;5092415;27;20200;-79
2024/03/16 03:31:06;;;;;;;27.95;13.55;;;11.40;99.90;;;;;;5087754;28;20520;-79
2024/03/16 03:33:32;;;;;;;21.48;12.38;;;11.40;99.90;;;;;;5094024;28;20642;-79
2024/03/16 03:35:59;;;;;;;19.77;12.93;;;11.40;99.90;;;;;;5092704;27;20133;-79
2024/03/16 03:38:25;;;;;;;27.58;13.93;;;11.40;99.90;;;;;;5095402;28;20039;-80
2024/03/16 03:40:51;;;;;;;24.13;12.18;;;11.30;99.90;;;;;;5099673;27;20103;-79
2024/03/16 03:43:21;;;;;;;24.30;13.40;;;11.40;99.90;;;;;;5098640;28;20050;-79
2024/03/16 03:45:50;;;;;;;25.02;15.20;;;11.40;99.90;;;;;;5098246;28;20371;-79
2024/03/16 03:48:25;;;;;;;28.35;14.75;;;11.40;99.90;;;;;;5099263;28;20665;-78
2024/03/16 03:50:52;;;;;;;26.33;15.00;;;11.40;99.90;;;;;;5100301;27;20114;-79
2024/03/16 03:56:39;;;;;;;25.80;13.93;;;11.40;99.90;;;;;;5091064;28;20198;-79
2024/03/16 03:59:05;;;;;;;26.20;14.23;;;11.40;99.90;;;;;;5095083;27;20039;-79
2024/03/16 04:01:30;;;;;;;28.92;14.98;;;11.50;99.90;;;;;;5095824;27;20396;-79
2024/03/16 04:03:57;;;;;;;24.05;14.23;;;11.40;99.90;;;;;;5094890;27;20031;-79
2024/03/16 04:06:25;;;;;;;24.67;14.40;;;11.30;99.90;;;;;;5093585;27;20035;-79
2024/03/16 04:08:50;;;;;;;22.23;12.95;;;11.30;99.90;;;;;;5091818;28;20124;-79
2024/03/16 04:11:16;;;;;;;24.80;13.00;;;11.40;99.90;;;;;;5095190;28;20122;-79
2024/03/16 04:13:42;;;;;;;27.52;13.20;;;11.40;99.90;;;;;;5095421;27;20488;-79
2024/03/16 04:16:09;;;;;;;24.75;12.45;;;11.30;99.90;;;;;;5096117;27;20036;-79
2024/03/16 04:18:35;;;;;;;27.52;12.90;;;11.20;99.90;;;;;;5092254;27;20040;-79
2024/03/16 04:21:02;;;;;;;25.65;13.65;;;11.20;99.90;;;;;;5094173;27;20063;-79
2024/03/16 04:23:28;;;;;;;22.27;13.20;;;11.20;99.90;;;;;;5094087;28;20739;-79
2024/03/16 04:25:53;;;;;;;31.75;14.73;;;11.10;99.90;;;;;;5093793;27;20370;-79
2024/03/16 04:28:19;;;;;;;31.38;13.82;;;11.20;99.90;;;;;;5096840;27;20027;-79
2024/03/16 04:30:45;;;;;;;30.02;13.35;;;11.20;99.90;;;;;;5095548;28;20043;-79
2024/03/16 04:33:11;;;;;;;25.17;14.25;;;11.20;99.90;;;;;;5091009;27;20023;-79
2024/03/16 04:35:37;;;;;;;28.17;14.73;;;11.20;99.90;;;;;;5085669;27;20043;-79
2024/03/16 04:38:03;;;;;;;25.33;14.25;;;11.20;99.90;;;;;;5093286;28;20036;-79
2024/03/16 04:40:28;;;;;;;21.00;12.48;;;11.30;99.90;;;;;;5092868;28;20035;-79
2024/03/16 04:42:54;;;;;;;25.52;11.95;;;11.30;99.90;;;;;;5089879;28;20454;-80
2024/03/16 04:45:20;;;;;;;23.45;13.50;;;11.30;99.90;;;;;;5091881;28;20465;-79
2024/03/16 04:47:45;;;;;;;25.20;14.43;;;11.40;99.90;;;;;;5090619;28;20028;-79
2024/03/16 04:50:11;;;;;;;22.17;12.55;;;11.30;99.90;;;;;;5089531;28;20400;-79
2024/03/16 04:52:37;;;;;;;27.40;13.40;;;11.20;99.90;;;;;;5090502;28;20085;-79
2024/03/16 04:55:03;;;;;;;20.48;12.88;;;11.20;99.90;;;;;;5090399;28;21486;-79
2024/03/16 04:57:29;;;;;;;22.58;13.25;;;11.10;99.90;;;;;;5089835;28;20031;-79
2024/03/16 04:59:54;;;;;;;32.22;12.38;;;11.20;99.90;;;;;;5091512;28;20396;-79
2024/03/16 05:02:20;;;;;;;23.73;13.60;;;11.10;99.90;;;;;;5091001;28;20051;-78
2024/03/16 05:04:45;;;;;;;23.05;13.63;;;11.10;99.90;;;;;;5087040;28;20037;-78
2024/03/16 05:07:11;;;;;;;23.88;14.65;;;11.00;99.90;;;;;;5090279;28;20032;-80
2024/03/16 05:09:37;;;;;;;26.83;15.13;;;11.00;99.90;;;;;;5092182;28;20842;-81
2024/03/16 05:12:03;;;;;;;30.58;16.55;;;10.90;99.90;;;;;;5092291;28;20150;-82
2024/03/16 05:14:28;;;;;;;29.80;14.60;;;11.00;99.90;;;;;;5092610;28;20119;-80
2024/03/16 05:16:54;;;;;;;25.00;13.30;;;10.90;99.90;;;;;;5092572;28;20047;-80
2024/03/16 05:19:19;;;;;;;24.45;15.25;;;10.90;99.90;;;;;;5092097;28;20106;-80
2024/03/16 05:21:46;;;;;;;28.88;16.00;;;10.90;99.90;;;;;;5092817;28;20039;-81
2024/03/16 05:24:12;;;;;;;27.80;15.20;;;10.90;99.90;;;;;;5092165;28;20377;-80
2024/03/16 05:26:38;;;;;;;25.38;15.52;;;10.90;99.90;;;;;;5091683;28;20042;-81
2024/03/16 05:29:05;;;;;;;28.90;16.13;;;10.80;99.90;;;;;;5092070;28;20674;-82
2024/03/16 05:31:32;;;;;;;30.83;14.88;;;10.70;99.90;;;;;;5090916;28;20115;-80
2024/03/16 05:33:58;;;;;;;23.35;15.48;;;10.80;99.90;;;;;;5092688;28;20073;-81
2024/03/16 05:36:23;;;;;;;28.17;15.35;;;10.90;99.90;;;;;;5092948;28;20036;-80
2024/03/16 05:38:49;;;;;;;26.98;14.30;;;10.80;99.90;;;;;;5091771;28;20040;-80
2024/03/16 05:41:15;;;;;;;26.85;14.23;;;10.90;99.90;;;;;;5091015;28;20088;-81
2024/03/16 05:43:43;;;;;;;32.20;14.65;;;10.90;99.90;;;;;;5091767;28;20047;-79
2024/03/16 05:46:10;;;;;;;24.80;14.35;;;10.90;99.90;;;;;;5091821;28;20123;-81
2024/03/16 05:48:35;;;;;;;27.20;14.68;;;10.90;99.90;;;;;;5091247;28;20042;-81
2024/03/16 05:51:02;;;;;;;25.50;14.93;;;11.10;99.90;;;;;;5092004;28;20031;-81
2024/03/16 05:53:27;;;;;;;27.25;14.65;;;11.10;99.90;;;;;;5091489;28;20123;-81
2024/03/16 05:55:53;;;;;;;22.77;13.35;;;11.10;99.90;;;;;;5092001;28;20040;-81
2024/03/16 05:58:21;;;;;;;26.63;13.15;;;11.10;99.90;;;;;;5092538;28;20040;-81
2024/03/16 06:00:47;;;;;;;26.02;13.77;;;11.10;99.90;;;;;;5091891;28;20031;-80
2024/03/16 06:03:13;;;;;;;24.15;13.02;;;11.10;99.90;;;;;;5088383;28;20039;-80
2024/03/16 06:05:38;;;;;;;26.92;14.55;;;11.20;99.90;;;;;;5090294;28;20043;-80
2024/03/16 06:08:05;;;;;;;23.67;15.23;;;11.10;99.90;;;;;;5091687;28;20757;-81
2024/03/16 06:10:33;;;;;;;25.92;13.55;;;11.10;99.90;;;;;;5090527;28;20055;-81
2024/03/16 06:13:02;;;;;;;24.50;13.63;;;11.20;99.90;;;;;;5087866;28;20062;-81
2024/03/16 06:15:28;;;;;;;22.15;13.75;;;11.10;99.90;;;;;;5092339;28;20058;-81
2024/03/16 06:17:53;;;;;;;30.00;13.60;;;11.20;99.90;;;;;;5090265;28;20479;-80
2024/03/16 06:20:19;;;;;;;23.40;12.95;;;11.20;99.90;;;;;;5091082;28;20031;-81
2024/03/16 06:22:45;;;;;;;23.02;13.60;;;11.20;99.90;;;;;;5091724;27;20944;-81
2024/03/16 06:25:12;;;;;;;24.35;13.35;;;11.20;99.90;;;;;;5090398;28;20034;-81
2024/03/16 06:27:49;;;;;;;24.92;12.50;;;11.10;99.90;;;;;;5091045;28;20031;-81
2024/03/16 06:30:16;;;;;;;25.13;12.63;;;11.10;99.90;;;;;;5090350;28;20072;-80
2024/03/16 06:33:05;;;;;;;20.63;11.68;;;11.20;99.90;;;;;;5081062;28;20036;-80
2024/03/16 06:35:30;;;;;;;22.10;13.50;;;11.20;99.90;;;;;;5080497;28;20075;-81
2024/03/16 06:37:56;;;;;;;19.50;11.68;;;11.10;99.90;;;;;;5079448;28;20450;-80
2024/03/16 06:40:21;;;;;;;22.98;14.25;;;11.20;99.90;;;;;;5080942;28;20035;-81
2024/03/16 06:42:50;;;;;;;24.42;13.27;;;11.20;99.90;;;;;;5081082;28;20076;-81
2024/03/16 06:45:15;;;;;;;23.80;12.57;;;11.30;99.90;;;;;;5081442;28;20040;-81
2024/03/16 06:47:41;;;;;;;20.50;12.68;;;11.30;99.90;;;;;;5080256;28;20040;-80
2024/03/16 06:50:07;;;;;;;22.92;12.77;;;11.30;99.90;;;;;;5086188;28;20031;-81
2024/03/16 06:52:33;;;;;;;20.67;12.05;;;11.30;99.90;;;;;;5078055;28;20063;-81
2024/03/16 06:54:59;;;;;;;23.90;13.57;;;11.20;99.90;;;;;;5079715;28;20028;-80
2024/03/16 06:57:24;;;;;;;25.48;13.25;;;11.20;99.90;;;;;;5085863;28;20042;-80
2024/03/16 06:59:51;;;;;;;26.80;14.38;;;11.10;99.90;;;;;;5088955;28;20031;-81
2024/03/16 07:02:17;;;;;;;21.73;12.18;;;11.20;99.90;;;;;;5088903;28;20050;-82
2024/03/16 07:04:42;;;;;;;21.75;11.63;;;11.20;99.90;;;;;;5097687;28;20417;-79
2024/03/16 07:07:08;;;;;;;24.00;13.13;;;11.20;99.90;;;;;;5086371;28;20073;-78
2024/03/16 07:09:34;;;;;;;22.25;11.52;;;11.30;99.90;;;;;;5089032;28;20032;-78
2024/03/16 07:11:59;;;;;;;20.90;11.70;;;11.40;99.90;;;;;;5087443;28;20062;-80
2024/03/16 07:14:25;;;;;;;21.70;11.98;;;11.40;99.90;;;;;;5085952;28;20540;-78
2024/03/16 07:16:50;;;;;;;20.83;12.35;;;11.40;99.90;;;;;;5088616;28;20413;-77
2024/03/16 07:19:18;;;;;;;28.30;12.73;;;11.50;99.90;;;;;;5086388;28;20032;-78
2024/03/16 07:21:43;;;;;;;22.85;13.38;;;11.70;99.90;;;;;;5086251;28;20702;-78
2024/03/16 07:24:09;;;;;;;22.02;12.05;;;11.70;99.90;;;;;;5087334;28;20046;-79
2024/03/16 07:26:35;;;;;;;20.35;12.32;;;11.70;99.90;;;;;;5087133;28;20080;-79
2024/03/16 07:29:01;;;;;;;26.75;13.40;;;11.90;99.90;;;;;;5086250;28;20127;-78
2024/03/16 07:31:26;;;;;;;20.33;11.57;;;12.10;99.90;;;;;;5088329;28;20547;-85
2024/03/16 07:33:53;;;;;;;20.45;12.10;;;12.30;99.90;;;;;;5095372;28;20035;-82
2024/03/16 07:36:19;;;;;;;24.75;12.68;;;12.50;99.90;;;;;;5086351;28;20055;-80
2024/03/16 07:38:44;;;;;;;21.80;13.00;;;12.70;99.90;;;;;;5089800;28;20111;-83
2024/03/16 07:41:10;;;;;;;24.73;12.45;;;12.60;99.90;;;;;;5083925;28;20038;-80
2024/03/16 07:43:36;;;;;;;32.03;12.38;;;12.50;99.90;;;;;;5084234;28;20047;-80
2024/03/16 07:46:04;;;;;;;20.40;11.93;;;12.70;99.90;;;;;;5086716;28;20039;-80
2024/03/16 07:48:29;;;;;;;20.13;12.35;;;12.70;99.90;;;;;;5084513;28;20031;-79
2024/03/16 07:51:04;;;;;;;22.48;12.05;;;12.70;99.90;;;;;;5085416;28;20028;-79
2024/03/16 07:53:31;;;;;;;20.13;11.13;;;12.60;99.90;;;;;;5086940;28;20040;-80
2024/03/16 07:55:58;;;;;;;20.25;12.50;;;12.40;99.90;;;;;;5086413;28;20508;-80
2024/03/16 07:58:24;;;;;;;24.85;13.98;;;12.20;99.90;;;;;;5087386;28;20020;-79
2024/03/16 08:00:50;;;;;;;26.67;14.43;;;12.20;99.90;;;;;;5086595;28;20036;-80
2024/03/16 08:03:16;;;;;;;23.60;13.63;;;12.20;99.90;;;;;;5085791;28;20642;-80
2024/03/16 08:05:41;;;;;;;21.70;12.65;;;12.10;99.90;;;;;;5085906;28;20118;-81
2024/03/16 08:08:07;;;;;;;22.80;11.55;;;12.10;99.90;;;;;;5086526;28;20039;-79
2024/03/16 08:10:32;;;;;;;21.00;11.57;;;12.30;99.90;;;;;;5088990;28;20052;-79
2024/03/16 08:12:58;;;;;;;24.15;12.85;;;12.40;99.90;;;;;;5089540;28;20032;-80
2024/03/16 08:15:24;;;;;;;25.88;13.93;;;12.50;99.90;;;;;;5089808;28;20088;-80
2024/03/16 08:17:51;;;;;;;27.35;14.75;;;12.50;99.90;;;;;;5089542;28;20154;-80
2024/03/16 08:20:17;;;;;;;21.73;12.75;;;12.40;99.90;;;;;;5089433;28;20019;-80
2024/03/16 08:22:43;;;;;;;24.10;13.25;;;12.30;99.90;;;;;;5089334;28;20051;-79
2024/03/16 08:25:10;;;;;;;22.60;14.00;;;12.20;99.90;;;;;;5090129;28;20036;-80
2024/03/16 08:27:37;;;;;;;22.80;13.07;;;12.10;99.90;;;;;;5084654;28;20366;-80
2024/03/16 08:30:03;;;;;;;22.23;12.27;;;12.20;99.90;;;;;;5090456;28;20426;-80
2024/03/16 08:32:29;;;;;;;26.50;13.90;;;12.20;99.90;;;;;;5090923;28;20028;-80
2024/03/16 08:34:55;;;;;;;20.10;12.43;;;12.20;99.90;;;;;;5090330;28;20866;-80
2024/03/16 08:37:20;;;;;;;26.13;13.65;;;12.20;99.90;;;;;;5089960;28;20055;-80
2024/03/16 08:39:46;;;;;;;24.40;13.18;;;12.20;99.90;;;;;;5091176;28;20623;-80
2024/03/16 08:42:12;;;;;;;21.63;12.88;;;12.30;99.90;;;;;;5091250;28;20035;-80
2024/03/16 08:44:39;;;;;;;22.25;12.18;;;12.50;99.90;;;;;;5087648;28;20622;-80
2024/03/16 08:47:05;;;;;;;20.10;11.90;;;12.60;99.90;;;;;;5093062;28;20027;-79
2024/03/16 08:49:31;;;;;;;22.55;12.40;;;12.60;99.90;;;;;;5092724;27;20050;-80
2024/03/16 08:52:00;;;;;;;25.33;11.82;;;12.60;99.90;;;;;;5091842;28;20032;-80
2024/03/16 08:54:26;;;;;;;22.35;12.73;;;12.60;99.90;;;;;;5092665;28;20744;-80
2024/03/16 08:56:52;;;;;;;20.25;12.38;;;12.40;99.90;;;;;;5091131;28;20036;-81
2024/03/16 08:59:18;;;;;;;22.27;13.68;;;12.40;99.90;;;;;;5093053;28;20092;-80
2024/03/16 09:01:44;;;;;;;22.00;12.52;;;12.50;99.90;;;;;;5095443;28;20041;-80
2024/03/16 09:04:09;;;;;;;23.42;13.38;;;12.70;99.90;;;;;;5092159;28;21350;-80
2024/03/16 09:06:38;;;;;;;27.30;14.38;;;12.70;99.90;;;;;;5091179;28;20036;-82
2024/03/16 09:09:07;;;;;;;21.75;13.40;;;12.70;99.90;;;;;;5092031;28;20027;-83
2024/03/16 09:11:32;;;;;;;20.75;13.13;;;12.70;99.90;;;;;;5087237;28;20047;-83
2024/03/16 09:13:58;;;;;;;22.60;12.63;;;12.80;99.90;;;;;;5091286;28;20032;-83
2024/03/16 09:16:24;;;;;;;22.98;14.35;;;12.80;99.90;;;;;;5097839;28;20506;-83
2024/03/16 09:18:49;;;;;;;25.92;12.70;;;12.90;99.90;;;;;;5098900;27;20584;-80
2024/03/16 09:21:15;;;;;;;28.23;13.77;;;12.80;99.90;;;;;;5098073;27;20055;-80
2024/03/16 09:23:41;;;;;;;23.67;13.82;;;13.00;99.90;;;;;;5099113;28;20039;-80
2024/03/16 09:26:07;;;;;;;27.25;14.50;;;13.00;99.90;;;;;;5098294;28;20039;-84
2024/03/16 09:28:34;;;;;;;23.30;13.43;;;13.10;99.90;;;;;;5096327;28;20065;-82
2024/03/16 09:31:04;;;;;;;24.92;14.07;;;13.10;99.90;;;;;;5092265;28;20031;-85
2024/03/16 09:33:29;;;;;;;19.95;12.32;;;13.00;99.90;;;;;;5096456;28;20051;-83
2024/03/16 09:35:55;;;;;;;21.20;12.07;;;13.10;99.90;;;;;;5094598;28;20133;-84
2024/03/16 09:38:23;;;;;;;24.50;10.75;;;13.30;99.90;;;;;;5093603;28;20765;-83
2024/03/16 09:40:52;;;;;;;24.02;13.20;;;13.50;99.90;;;;;;5092048;28;20039;-83
2024/03/16 09:43:18;;;;;;;20.65;11.38;;;13.50;99.90;;;;;;5092966;28;20077;-83
2024/03/16 09:45:46;;;;;;;21.85;12.02;;;13.80;99.90;;;;;;5089036;28;20598;-81
2024/03/16 09:48:12;;;;;;;20.15;12.02;;;13.80;99.90;;;;;;5092955;28;20134;-82
2024/03/16 09:50:44;;;;;;;20.50;11.55;;;13.90;99.90;;;;;;5092112;28;20024;-84
2024/03/16 09:53:25;;;;;;;19.92;11.10;;;14.00;99.90;;;;;;5093389;28;20032;-82
2024/03/16 09:55:51;;;;;;;21.33;12.38;;;14.20;99.90;;;;;;5093387;28;20024;-82
2024/03/16 09:58:20;;;;;;;27.63;14.00;;;14.20;99.90;;;;;;5093053;27;20040;-82
2024/03/16 10:00:47;;;;;;;29.83;13.05;;;14.30;99.90;;;;;;5090863;28;20150;-81
2024/03/16 10:03:15;;;;;;;22.80;12.43;;;14.30;99.90;;;;;;5092724;28;20040;-82
2024/03/16 10:05:41;;;;;;;26.23;12.52;;;14.30;99.90;;;;;;5095978;28;20156;-84
2024/03/16 10:08:07;;;;;;;19.05;10.95;;;14.30;99.90;;;;;;5093111;28;20035;-81
2024/03/16 10:10:33;;;;;;;23.67;13.02;;;14.30;99.90;;;;;;5093266;28;20043;-83
2024/03/16 10:13:08;;;;;;;27.83;14.20;;;14.40;99.90;;;;;;5092285;28;20116;-80
2024/03/16 10:15:44;;;;;;;25.52;13.55;;;14.30;99.90;;;;;;5093079;28;20050;-80
2024/03/16 10:18:19;;;;;;;24.73;13.75;;;14.30;99.90;;;;;;5092712;28;20122;-82
2024/03/16 10:20:45;;;;;;;26.60;13.98;;;14.60;99.90;;;;;;5091965;28;20667;-82
2024/03/16 10:23:20;;;;;;;34.40;14.85;;;14.70;99.90;;;;;;5094975;28;20135;-82
2024/03/16 10:25:49;;;;;;;22.42;13.52;;;14.60;99.90;;;;;;5096181;28;20536;-83
2024/03/16 10:28:15;;;;;;;23.70;13.15;;;14.80;99.90;;;;;;5088339;28;20040;-82
2024/03/16 10:30:44;;;;;;;21.33;12.07;;;14.90;99.90;;;;;;5089935;28;20019;-81
2024/03/16 10:33:11;;;;;;;23.95;13.00;;;14.90;99.90;;;;;;5091869;28;20027;-82
2024/03/16 10:35:39;;;;;;;25.27;13.55;;;15.10;99.90;;;;;;5093880;28;20031;-81
2024/03/16 10:38:13;;;;;;;23.73;13.73;;;15.20;99.90;;;;;;5095499;28;20019;-82
2024/03/16 10:40:40;;;;;;;25.52;12.48;;;15.20;99.90;;;;;;5092100;28;20695;-82
2024/03/16 10:43:12;;;;;;;20.17;11.20;;;15.10;99.90;;;;;;5091766;28;20047;-81
2024/03/16 10:45:48;;;;;;;18.02;11.45;;;15.10;99.90;;;;;;5092265;28;20115;-81
2024/03/16 10:48:15;;;;;;;23.92;12.68;;;15.10;99.90;;;;;;5093066;28;20078;-83
2024/03/16 10:50:45;;;;;;;23.45;13.05;;;15.50;99.90;;;;;;5100872;28;20042;-80
2024/03/16 10:53:12;;;;;;;23.88;13.90;;;15.70;99.90;;;;;;5097832;28;20046;-78
2024/03/16 10:55:41;;;;;;;24.38;11.90;;;15.70;99.90;;;;;;5095113;28;20035;-77
2024/03/16 10:58:25;;;;;;;25.77;12.15;;;15.90;99.90;;;;;;5088132;28;20036;-78
2024/03/16 11:00:56;;;;;;;21.58;11.20;;;16.00;99.90;;;;;;5088000;28;20034;-81
2024/03/16 11:03:27;;;;;;;24.92;11.05;;;16.10;99.90;;;;;;5091233;28;20040;-81
2024/03/16 11:06:11;;;;;;;17.90;10.70;;;15.90;99.90;;;;;;5090312;28;20063;-84
2024/03/16 11:08:37;;;;;;;21.30;11.82;;;16.00;99.90;;;;;;5090814;28;20044;-81
2024/03/16 11:11:04;;;;;;;17.55;10.65;;;16.00;99.90;;;;;;5090034;28;20116;-85
2024/03/16 11:13:30;;;;;;;23.67;11.38;;;16.20;99.90;;;;;;5093379;28;20036;-82
2024/03/16 11:15:57;;;;;;;17.05;9.93;;;16.40;99.60;;;;;;5093407;28;20034;-84
2024/03/16 11:18:23;;;;;;;19.40;9.38;;;16.60;99.80;;;;;;5090035;28;21475;-82
2024/03/16 11:20:53;;;;;;;15.60;9.15;;;16.40;98.90;;;;;;5085822;28;20023;-83
2024/03/16 11:23:29;;;;;;;12.27;7.28;;;16.40;98.10;;;;;;5091974;28;20052;-83
2024/03/16 11:25:58;;;;;;;13.10;7.15;;;16.70;98.10;;;;;;5094403;28;20032;-83
2024/03/16 11:28:24;;;;;;;12.90;7.90;;;16.70;97.90;;;;;;5094015;28;20134;-87
2024/03/16 11:30:50;;;;;;;13.00;6.78;;;16.50;97.90;;;;;;5091551;28;20652;-80
2024/03/16 11:33:17;;;;;;;14.20;7.40;;;16.80;99.90;;;;;;5093014;28;20115;-82
2024/03/16 11:35:44;;;;;;;10.85;6.78;;;16.80;97.40;;;;;;5094192;28;20036;-82
2024/03/16 11:38:16;;;;;;;12.82;6.78;;;16.90;97.30;;;;;;5095012;28;20028;-83
2024/03/16 11:40:44;;;;;;;14.88;7.30;;;17.00;97.40;;;;;;5092668;28;20448;-83
2024/03/16 11:43:11;;;;;;;9.98;5.75;;;17.10;97.40;;;;;;5096058;28;20175;-84
2024/03/16 11:45:39;;;;;;;13.75;7.30;;;17.40;97.60;;;;;;5099424;28;20088;-83
2024/03/16 11:48:05;;;;;;;12.18;6.90;;;17.70;97.10;;;;;;5098563;28;20065;-83
2024/03/16 11:50:37;;;;;;;14.10;7.95;;;17.50;97.00;;;;;;5097633;28;20027;-83
2024/03/16 11:53:06;;;;;;;12.07;7.30;;;17.60;97.10;;;;;;5098327;28;20043;-83
2024/03/16 11:55:32;;;;;;;15.00;8.52;;;17.60;97.00;;;;;;5099151;28;20068;-83
2024/03/16 11:58:05;;;;;;;10.48;5.97;;;17.60;97.70;;;;;;5098773;28;20023;-83
2024/03/16 12:00:32;;;;;;;13.07;7.80;;;17.70;97.40;;;;;;5097809;28;20098;-84
2024/03/16 12:03:05;;;;;;;11.02;6.13;;;17.70;97.20;;;;;;5099926;28;20062;-84
2024/03/16 12:05:31;;;;;;;13.48;7.70;;;17.40;96.60;;;;;;5101433;28;20039;-83
2024/03/16 12:07:58;;;;;;;15.07;7.30;;;17.20;97.00;;;;;;5098410;28;20063;-84
2024/03/16 12:10:25;;;;;;;11.85;7.38;;;17.20;97.40;;;;;;5100730;28;20111;-83
2024/03/16 12:12:50;;;;;;;12.18;6.78;;;17.50;96.70;;;;;;5099931;28;20031;-83
2024/03/16 12:15:19;;;;;;;14.48;7.45;;;17.70;97.00;;;;;;5100974;28;20026;-83
2024/03/16 12:17:46;;;;;;;13.93;7.72;;;17.90;97.00;;;;;;5097424;28;20462;-84
2024/03/16 12:20:16;;;;;;;15.30;7.25;;;18.10;97.20;;;;;;5098703;28;20074;-85
2024/03/16 12:22:48;;;;;;;13.88;7.50;;;18.20;97.40;;;;;;5097573;28;20584;-84
2024/03/16 12:25:15;;;;;;;17.27;7.57;;;18.40;96.60;;;;;;5096891;28;20039;-83
2024/03/16 12:27:49;;;;;;;15.30;6.60;;;18.30;97.20;;;;;;5095496;28;20086;-83
2024/03/16 12:30:14;;;;;;;12.75;7.47;;;18.20;96.60;;;;;;5095285;28;20043;-83